Franklin Grove, Illinois
Current Conditions -  °F | °C
As of 10:55 PM on Sunday 21 Dec 2014 (Local Time) from KRPJ Reporting Station
Overcast Overcast  
Wind Chill: 24°   Ceiling: 4100
Heat Index: 33°   Visibility: 7mi
Dew Point: 31°   Wind: 13mph
Humidity: 91%   Direction: 160°SSE
Pressure: 29.99"   Gusts: NA
Location:  41.84°N, 89.3°W
Report Text: KRPJ 220455Z AUTO 16011KT 7SM OVC041 01/M01 A2999 RMK AO2 T00061007
Loading
Personal Weather Stations






























Interactive Weather Map New forecast layout! Learn more

10-Day Weather Forecast

Advertisements
Track Severe Weather on mobile